createdAt,value
2018-11-11T00:01:48.837Z,100505.63
2018-11-11T00:04:17.285Z,100508.03
2018-11-11T00:06:45.775Z,100505.30
2018-11-11T00:09:14.217Z,100507.93
2018-11-11T00:11:42.637Z,100498.96
2018-11-11T00:14:11.109Z,100499.39
2018-11-11T00:16:39.631Z,100498.96
2018-11-11T00:19:08.480Z,100502.86
2018-11-11T00:21:36.924Z,100514.30
2018-11-11T00:24:05.415Z,100517.27
2018-11-11T00:26:33.825Z,100519.07
2018-11-11T00:29:02.260Z,100512.33
2018-11-11T00:31:30.683Z,100511.91
2018-11-11T00:33:59.141Z,100508.33
2018-11-11T00:36:27.576Z,100508.91
2018-11-11T00:38:55.999Z,100510.88
2018-11-11T00:41:24.399Z,100506.56
2018-11-11T00:43:52.876Z,100521.72
2018-11-11T00:46:21.281Z,100521.81
2018-11-11T00:48:49.689Z,100521.64
2018-11-11T00:51:18.160Z,100522.20
2018-11-11T00:53:46.566Z,100527.94
2018-11-11T00:56:15.000Z,100533.53
2018-11-11T00:58:43.401Z,100527.66
2018-11-11T01:01:11.853Z,100520.95
2018-11-11T01:03:40.601Z,100521.48
2018-11-11T01:06:09.084Z,100524.09
2018-11-11T01:08:37.497Z,100527.35
2018-11-11T01:11:05.944Z,100529.68
2018-11-11T01:13:34.360Z,100532.84
2018-11-11T01:16:02.831Z,100532.00
2018-11-11T01:18:31.238Z,100528.33
2018-11-11T01:20:59.651Z,100534.81
2018-11-11T01:23:28.059Z,100532.08
2018-11-11T01:25:56.512Z,100536.41
2018-11-11T01:28:24.936Z,100530.84
2018-11-11T01:30:53.389Z,100530.73
2018-11-11T01:33:21.802Z,100529.83
2018-11-11T01:35:50.226Z,100524.55
2018-11-11T01:38:18.630Z,100522.89
2018-11-11T01:40:47.068Z,100523.84
2018-11-11T01:43:15.490Z,100522.48
2018-11-11T01:45:43.941Z,100525.64
2018-11-11T01:48:12.352Z,100523.86
2018-11-11T01:50:40.811Z,100521.66
2018-11-11T01:53:09.204Z,100510.95
2018-11-11T01:55:37.609Z,100509.59
2018-11-11T01:58:06.322Z,100525.05
2018-11-11T02:00:34.849Z,100521.67
2018-11-11T02:03:03.327Z,100524.83
2018-11-11T02:05:31.728Z,100525.59
2018-11-11T02:08:00.188Z,100517.92
2018-11-11T02:10:28.692Z,100521.67
2018-11-11T02:12:57.122Z,100522.72
2018-11-11T02:15:25.541Z,100527.78
2018-11-11T02:17:53.959Z,100517.58
2018-11-11T02:20:22.376Z,100515.48
2018-11-11T02:22:51.581Z,100513.46
2018-11-11T02:25:19.997Z,100521.48
2018-11-11T02:27:48.443Z,100517.58
2018-11-11T02:30:19.229Z,100522.84
2018-11-11T02:32:47.723Z,100524.20
2018-11-11T02:35:16.153Z,100515.80
2018-11-11T02:37:44.793Z,100513.48
2018-11-11T02:40:17.202Z,100506.22
2018-11-11T02:42:45.718Z,100504.67
2018-11-11T02:45:15.324Z,100492.45
2018-11-11T02:47:43.799Z,100497.72
2018-11-11T02:50:14.403Z,100512.22
2018-11-11T02:52:43.384Z,100515.37
2018-11-11T02:55:12.458Z,100516.10
2018-11-11T02:57:41.340Z,100513.48
2018-11-11T03:00:15.773Z,100511.09
2018-11-11T03:02:44.983Z,100506.54
2018-11-11T03:05:14.617Z,100498.39
2018-11-11T03:07:43.069Z,100502.80
2018-11-11T03:10:12.530Z,100503.45
2018-11-11T03:12:41.313Z,100507.02
2018-11-11T03:15:10.964Z,100513.62
2018-11-11T03:17:39.443Z,100511.95
2018-11-11T03:20:08.570Z,100511.95
2018-11-11T03:22:37.012Z,100512.59
2018-11-11T03:25:06.650Z,100512.25
2018-11-11T03:27:35.059Z,100511.95
2018-11-11T03:30:03.571Z,100515.73
2018-11-11T03:32:32.028Z,100512.25
2018-11-11T03:35:00.471Z,100517.30
2018-11-11T03:37:28.897Z,100520.14
2018-11-11T03:39:57.348Z,100515.52
2018-11-11T03:42:25.761Z,100506.08
2018-11-11T03:44:54.220Z,100515.33
2018-11-11T03:47:22.661Z,100510.47
2018-11-11T03:49:51.126Z,100511.41
2018-11-11T03:52:19.556Z,100507.01
2018-11-11T03:54:48.035Z,100520.67
2018-11-11T03:57:16.477Z,100517.30
2018-11-11T03:59:44.973Z,100518.66
2018-11-11T04:02:13.431Z,100521.20
2018-11-11T04:04:41.891Z,100526.66
2018-11-11T04:07:10.331Z,100526.74
2018-11-11T04:09:38.777Z,100525.70
2018-11-11T04:12:07.201Z,100521.27
2018-11-11T04:14:35.666Z,100523.59
2018-11-11T04:17:04.131Z,100523.81
2018-11-11T04:19:32.589Z,100525.06
2018-11-11T04:22:05.161Z,100523.70
2018-11-11T04:24:33.616Z,100527.50
2018-11-11T04:27:02.040Z,100524.23
2018-11-11T04:29:30.485Z,100521.20
2018-11-11T04:31:58.895Z,100522.23
2018-11-11T04:34:27.351Z,100516.27
2018-11-11T04:36:55.768Z,100514.55
2018-11-11T04:39:24.343Z,100519.41
2018-11-11T04:41:52.688Z,100517.10
2018-11-11T04:44:21.115Z,100507.66
2018-11-11T04:46:49.591Z,100513.31
2018-11-11T04:49:18.089Z,100522.47
2018-11-11T04:51:46.481Z,100553.47
2018-11-11T04:54:14.905Z,100551.91
2018-11-11T04:56:43.361Z,100550.02
2018-11-11T04:59:11.788Z,100556.42
2018-11-11T05:01:40.372Z,100557.26
2018-11-11T05:04:08.757Z,100533.09
2018-11-11T05:06:37.230Z,100546.25
2018-11-11T05:09:09.112Z,100563.14
2018-11-11T05:11:37.565Z,100554.22
2018-11-11T05:14:06.070Z,100548.98
2018-11-11T05:16:34.504Z,100534.16
2018-11-11T05:19:02.925Z,100536.70
2018-11-11T05:21:31.372Z,100534.80
2018-11-11T05:23:59.824Z,100534.38
2018-11-11T05:26:28.263Z,100545.39
2018-11-11T05:28:56.707Z,100540.38
2018-11-11T05:31:25.235Z,100535.22
2018-11-11T05:33:53.677Z,100540.00
2018-11-11T05:36:22.144Z,100538.86
2018-11-11T05:38:50.564Z,100522.70
2018-11-11T05:41:19.064Z,100541.40
2018-11-11T05:43:47.511Z,100547.39
2018-11-11T05:46:15.977Z,100552.62
2018-11-11T05:48:44.392Z,100544.95
2018-11-11T05:51:12.879Z,100546.53
2018-11-11T05:53:41.332Z,100547.17
2018-11-11T05:56:09.773Z,100554.19
2018-11-11T05:58:38.217Z,100549.97
2018-11-11T06:01:06.729Z,100552.28
2018-11-11T06:03:35.221Z,100557.53
2018-11-11T06:06:03.657Z,100552.18
2018-11-11T06:08:32.103Z,100557.52
2018-11-11T06:11:00.544Z,100558.80
2018-11-11T06:13:28.981Z,100555.63
2018-11-11T06:15:57.424Z,100559.41
2018-11-11T06:18:25.869Z,100560.88
2018-11-11T06:20:54.343Z,100562.55
2018-11-11T06:23:22.763Z,100551.84
2018-11-11T06:25:51.215Z,100556.56
2018-11-11T06:28:19.640Z,100556.97
2018-11-11T06:30:48.105Z,100559.91
2018-11-11T06:33:16.545Z,100554.27
2018-11-11T06:35:44.994Z,100558.66
2018-11-11T06:38:13.440Z,100562.20
2018-11-11T06:40:44.672Z,100566.41
2018-11-11T06:43:13.251Z,100566.94
2018-11-11T06:45:42.174Z,100568.42
2018-11-11T06:48:10.753Z,100568.73
2018-11-11T06:50:39.288Z,100571.16
2018-11-11T06:53:07.817Z,100571.24
2018-11-11T06:55:36.332Z,100579.42
2018-11-11T06:58:05.217Z,100577.20
2018-11-11T07:00:33.632Z,100570.50
2018-11-11T07:03:13.318Z,100566.11
2018-11-11T07:05:41.746Z,100579.09
2018-11-11T07:08:10.202Z,100571.44
2018-11-11T07:10:38.623Z,100570.79
2018-11-11T07:13:07.060Z,100572.50
2018-11-11T07:15:35.504Z,100573.52
2018-11-11T07:18:03.949Z,100577.70
2018-11-11T07:20:32.353Z,100582.23
2018-11-11T07:23:00.793Z,100572.04
2018-11-11T07:25:29.206Z,100586.82
2018-11-11T07:27:57.662Z,100591.06
2018-11-11T07:30:26.091Z,100575.44
2018-11-11T07:32:54.547Z,100571.14
2018-11-11T07:35:22.989Z,100569.06
2018-11-11T07:37:51.441Z,100571.99
2018-11-11T07:40:19.862Z,100578.39
2018-11-11T07:42:48.330Z,100571.08
2018-11-11T07:45:16.751Z,100575.30
2018-11-11T07:47:45.276Z,100581.16
2018-11-11T07:50:13.694Z,100580.76
2018-11-11T07:52:42.161Z,100589.30
2018-11-11T07:55:12.044Z,100587.10
2018-11-11T07:57:40.603Z,100593.18
2018-11-11T08:00:11.294Z,100596.22
2018-11-11T08:02:39.864Z,100604.72
2018-11-11T08:05:08.332Z,100599.91
2018-11-11T08:07:36.795Z,100599.98
2018-11-11T08:10:09.749Z,100606.16
2018-11-11T08:12:38.220Z,100602.35
2018-11-11T08:15:06.727Z,100600.37
2018-11-11T08:17:35.154Z,100609.17
2018-11-11T08:20:03.740Z,100605.08
2018-11-11T08:22:32.323Z,100603.01
2018-11-11T08:25:00.804Z,100602.41
2018-11-11T08:27:29.237Z,100606.31
2018-11-11T08:29:57.682Z,100607.26
2018-11-11T08:32:26.161Z,100605.89
2018-11-11T08:34:54.567Z,100609.27
2018-11-11T08:37:23.009Z,100598.42
2018-11-11T08:39:51.434Z,100611.97
2018-11-11T08:42:19.872Z,100607.75
2018-11-11T08:44:48.306Z,100608.88
2018-11-11T08:47:16.757Z,100611.91
2018-11-11T08:49:45.194Z,100614.74
2018-11-11T08:52:13.621Z,100624.07
2018-11-11T08:54:42.054Z,100617.22
2018-11-11T08:57:10.473Z,100624.77
2018-11-11T08:59:38.912Z,100627.72
2018-11-11T09:02:07.345Z,100626.83
2018-11-11T09:04:35.868Z,100627.23
2018-11-11T09:07:04.252Z,100639.66
2018-11-11T09:09:32.692Z,100637.02
2018-11-11T09:12:01.132Z,100624.66
2018-11-11T09:14:29.594Z,100633.61
2018-11-11T09:16:58.029Z,100628.53
2018-11-11T09:19:26.475Z,100626.94
2018-11-11T09:21:54.877Z,100623.90
2018-11-11T09:24:23.330Z,100620.33
2018-11-11T09:26:51.747Z,100623.90
2018-11-11T09:29:20.240Z,100627.47
2018-11-11T09:31:48.621Z,100620.09
2018-11-11T09:34:17.042Z,100620.09
2018-11-11T09:36:45.473Z,100624.20
2018-11-11T09:39:14.006Z,100627.77
2018-11-11T09:41:42.381Z,100628.48
2018-11-11T09:44:10.815Z,100634.16
2018-11-11T09:46:39.909Z,100633.59
2018-11-11T09:49:08.357Z,100631.59
2018-11-11T09:51:36.763Z,100639.70
2018-11-11T09:54:05.888Z,100639.59
2018-11-11T09:56:34.378Z,100640.16
2018-11-11T09:59:02.901Z,100644.95
2018-11-11T10:01:31.498Z,100653.48
2018-11-11T10:04:07.012Z,100657.41
2018-11-11T10:06:56.824Z,100651.61
2018-11-11T10:09:29.753Z,100658.04
2018-11-11T10:12:03.414Z,100668.98
2018-11-11T10:14:39.330Z,100660.78
2018-11-11T10:17:13.028Z,100675.62
2018-11-11T10:19:46.723Z,100678.97
2018-11-11T10:23:18.269Z,100674.26
2018-11-11T10:25:56.874Z,100678.26
2018-11-11T10:29:33.368Z,100677.44
2018-11-11T10:32:13.975Z,100677.03
2018-11-11T10:34:46.759Z,100679.16
2018-11-11T10:37:19.160Z,100672.33
2018-11-11T10:39:55.728Z,100673.05
2018-11-11T10:42:32.163Z,100668.53
2018-11-11T10:46:05.029Z,100675.26
2018-11-11T10:48:39.522Z,100678.33
2018-11-11T10:51:08.056Z,100674.53
2018-11-11T10:53:36.754Z,100678.33
2018-11-11T10:56:05.354Z,100677.69
2018-11-11T10:58:33.782Z,100674.76
2018-11-11T11:02:08.105Z,100667.92
2018-11-11T11:04:40.918Z,100667.40
2018-11-11T11:07:09.774Z,100670.67
2018-11-11T11:09:38.528Z,100672.11
2018-11-11T11:12:07.428Z,100678.52
2018-11-11T11:14:35.877Z,100679.28
2018-11-11T11:17:04.330Z,100675.48
2018-11-11T11:19:32.753Z,100671.48
2018-11-11T11:22:01.203Z,100671.98
2018-11-11T11:24:29.647Z,100669.98
2018-11-11T11:26:58.135Z,100668.08
2018-11-11T11:29:26.528Z,100657.13
2018-11-11T11:31:55.029Z,100654.16
2018-11-11T11:34:23.428Z,100656.78
2018-11-11T11:36:51.878Z,100654.98
2018-11-11T11:39:20.305Z,100652.95
2018-11-11T11:41:48.739Z,100645.98
2018-11-11T11:44:17.230Z,100651.03
2018-11-11T11:46:45.638Z,100649.74
2018-11-11T11:49:14.271Z,100642.34
2018-11-11T11:51:42.687Z,100650.22
2018-11-11T11:54:11.125Z,100643.17
2018-11-11T11:56:39.547Z,100642.44
2018-11-11T11:59:07.997Z,100650.75
2018-11-11T12:01:36.405Z,100649.36
2018-11-11T12:04:05.002Z,100648.09
2018-11-11T12:06:33.454Z,100644.37
2018-11-11T12:09:01.952Z,100652.62
2018-11-11T12:11:30.337Z,100653.66
2018-11-11T12:13:58.778Z,100651.22
2018-11-11T12:16:27.231Z,100654.80
2018-11-11T12:18:55.649Z,100657.94
2018-11-11T12:21:24.050Z,100654.22
2018-11-11T12:23:52.489Z,100653.16
2018-11-11T12:26:20.921Z,100661.83
2018-11-11T12:28:49.378Z,100653.48
2018-11-11T12:31:17.868Z,100657.73
2018-11-11T12:33:46.326Z,100650.22
2018-11-11T12:36:14.728Z,100643.70
2018-11-11T12:38:43.192Z,100633.67
2018-11-11T12:41:11.617Z,100629.43
2018-11-11T12:43:40.082Z,100634.84
2018-11-11T12:46:08.497Z,100641.03
2018-11-11T12:48:51.513Z,100642.17
2018-11-11T12:51:20.121Z,100648.28
2018-11-11T12:53:48.574Z,100649.95
2018-11-11T12:56:16.988Z,100648.95
2018-11-11T12:58:45.828Z,100658.50
2018-11-11T13:01:14.306Z,100662.34
2018-11-11T13:03:42.744Z,100669.19
2018-11-11T13:06:11.194Z,100665.59
2018-11-11T13:08:39.765Z,100668.28
2018-11-11T13:11:08.974Z,100671.63
2018-11-11T13:13:37.879Z,100676.06
2018-11-11T13:16:06.983Z,100675.11
2018-11-11T13:18:35.447Z,100664.52
2018-11-11T13:21:03.900Z,100675.34
2018-11-11T13:23:32.335Z,100673.82
2018-11-11T13:26:00.755Z,100689.36
2018-11-11T13:28:29.238Z,100689.98
2018-11-11T13:30:57.648Z,100691.27
2018-11-11T13:33:26.093Z,100698.28
2018-11-11T13:35:54.504Z,100712.98
2018-11-11T13:38:23.048Z,100720.56
2018-11-11T13:40:51.419Z,100713.25
2018-11-11T13:43:19.965Z,100709.49
2018-11-11T13:45:48.328Z,100709.45
2018-11-11T13:48:16.756Z,100712.88
2018-11-11T13:50:45.171Z,100713.61
2018-11-11T13:53:13.630Z,100716.78
2018-11-11T13:55:42.116Z,100715.64
2018-11-11T13:58:10.502Z,100726.08
2018-11-11T14:00:38.982Z,100725.02
2018-11-11T14:03:07.475Z,100724.53
2018-11-11T14:05:35.939Z,100736.95
2018-11-11T14:08:04.390Z,100744.02
2018-11-11T14:10:32.853Z,100746.25
2018-11-11T14:13:01.256Z,100744.22
2018-11-11T14:15:29.711Z,100749.55
2018-11-11T14:17:58.220Z,100734.93
2018-11-11T14:20:26.844Z,100740.55
2018-11-11T14:22:56.202Z,100742.22
2018-11-11T14:25:27.376Z,100733.86
2018-11-11T14:27:55.772Z,100736.60
2018-11-11T14:30:26.438Z,100738.17
2018-11-11T14:32:55.721Z,100740.08
2018-11-11T14:35:24.185Z,100739.78
2018-11-11T14:37:52.788Z,100744.86
2018-11-11T14:40:22.699Z,100743.19
2018-11-11T14:42:51.105Z,100744.36
2018-11-11T14:45:20.200Z,100749.46
2018-11-11T14:47:50.061Z,100745.97
2018-11-11T14:50:19.265Z,100740.01
2018-11-11T14:52:47.925Z,100749.84
2018-11-11T14:55:20.386Z,100749.52
2018-11-11T14:57:48.798Z,100752.17
2018-11-11T15:00:19.804Z,100750.73
2018-11-11T15:03:19.996Z,100767.81
2018-11-11T15:05:48.810Z,100771.31
2018-11-11T15:08:17.263Z,100781.42
2018-11-11T15:10:45.729Z,100778.16
2018-11-11T15:13:15.315Z,100774.05
2018-11-11T15:15:43.762Z,100755.97
2018-11-11T15:18:12.189Z,100754.83
2018-11-11T15:20:40.959Z,100759.34
2018-11-11T15:23:09.921Z,100754.27
2018-11-11T15:25:38.454Z,100756.28
2018-11-11T15:28:07.410Z,100769.42
2018-11-11T15:30:36.767Z,100768.05
2018-11-11T15:33:05.872Z,100776.14
2018-11-11T15:35:34.304Z,100772.05
2018-11-11T15:38:03.143Z,100763.53
2018-11-11T15:40:32.938Z,100767.63
2018-11-11T15:43:01.453Z,100774.69
2018-11-11T15:45:31.268Z,100773.44
2018-11-11T15:48:00.057Z,100779.43
2018-11-11T15:50:30.781Z,100783.31
2018-11-11T15:53:00.416Z,100787.41
2018-11-11T15:55:30.067Z,100777.20
2018-11-11T15:57:58.476Z,100783.84
2018-11-11T16:00:28.208Z,100782.06
2018-11-11T16:02:56.647Z,100795.19
2018-11-11T16:05:25.137Z,100793.92
2018-11-11T16:07:54.001Z,100781.20
2018-11-11T16:10:23.731Z,100792.22
2018-11-11T16:12:52.413Z,100791.47
2018-11-11T16:15:23.337Z,100793.27
2018-11-11T16:17:53.323Z,100795.38
2018-11-11T16:20:23.190Z,100793.67
2018-11-11T16:22:52.871Z,100779.05
2018-11-11T16:25:21.393Z,100782.66
2018-11-11T16:27:50.170Z,100788.95
2018-11-11T16:30:20.952Z,100779.49
2018-11-11T16:32:49.841Z,100778.74
2018-11-11T16:35:19.705Z,100786.55
2018-11-11T16:37:48.215Z,100789.04
2018-11-11T16:40:18.204Z,100789.04
2018-11-11T16:42:47.206Z,100788.61
2018-11-11T16:45:24.352Z,100791.59
2018-11-11T16:47:52.957Z,100798.01
2018-11-11T16:50:24.897Z,100802.41
2018-11-11T16:52:54.058Z,100803.88
2018-11-11T16:55:23.898Z,100817.33
2018-11-11T16:57:52.368Z,100819.87
2018-11-11T17:00:22.297Z,100823.20
2018-11-11T17:02:51.304Z,100836.05
2018-11-11T17:05:21.107Z,100838.06
2018-11-11T17:07:49.827Z,100843.00
2018-11-11T17:10:20.517Z,100846.56
2018-11-11T17:12:49.810Z,100843.30
2018-11-11T17:15:19.718Z,100849.30
2018-11-11T17:17:48.157Z,100848.87
2018-11-11T17:20:17.943Z,100847.81
2018-11-11T17:22:47.102Z,100850.78
2018-11-11T17:25:16.399Z,100851.28
2018-11-11T17:27:45.326Z,100851.50
2018-11-11T17:30:16.869Z,100855.72
2018-11-11T17:32:46.027Z,100868.86
2018-11-11T17:35:14.465Z,100865.59
2018-11-11T17:37:43.193Z,100869.39
2018-11-11T17:40:13.551Z,100854.89
2018-11-11T17:42:43.276Z,100859.08
2018-11-11T17:45:12.255Z,100849.84
2018-11-11T17:47:41.191Z,100852.59
2018-11-11T17:50:12.142Z,100851.22
2018-11-11T17:52:40.856Z,100850.38
2018-11-11T17:55:10.263Z,100864.77
2018-11-11T17:57:38.737Z,100874.34
2018-11-11T18:00:09.127Z,100870.77
2018-11-11T18:02:37.616Z,100874.56
2018-11-11T18:05:07.200Z,100870.05
2018-11-11T18:07:35.620Z,100870.58
2018-11-11T18:10:04.049Z,100878.38
2018-11-11T18:12:32.488Z,100881.60
2018-11-11T18:15:00.902Z,100877.84
2018-11-11T18:17:29.361Z,100872.25
2018-11-11T18:19:57.776Z,100874.87
2018-11-11T18:22:26.224Z,100868.68
2018-11-11T18:24:54.653Z,100880.98
2018-11-11T18:27:23.294Z,100899.90
2018-11-11T18:29:51.579Z,100908.32
2018-11-11T18:32:20.033Z,100903.27
2018-11-11T18:34:48.954Z,100895.28
2018-11-11T18:37:17.534Z,100894.00
2018-11-11T18:39:46.429Z,100879.09
2018-11-11T18:42:15.398Z,100865.13
2018-11-11T18:44:44.274Z,100867.21
2018-11-11T18:47:13.028Z,100880.47
2018-11-11T18:49:41.900Z,100893.49
2018-11-11T18:52:10.760Z,100897.06
2018-11-11T18:54:39.900Z,100896.04
2018-11-11T18:57:08.900Z,100885.84
2018-11-11T18:59:38.316Z,100893.63
2018-11-11T19:02:07.073Z,100906.77
2018-11-11T19:04:36.081Z,100905.19
2018-11-11T19:07:04.617Z,100904.78
2018-11-11T19:09:33.037Z,100902.80
2018-11-11T19:12:01.502Z,100898.04
2018-11-11T19:14:29.965Z,100897.84
2018-11-11T19:16:58.970Z,100905.70
2018-11-11T19:19:27.952Z,100899.49
2018-11-11T19:21:57.112Z,100900.73
2018-11-11T19:24:25.808Z,100907.36
2018-11-11T19:26:54.987Z,100908.60
2018-11-11T19:29:23.844Z,100913.33
2018-11-11T19:31:52.825Z,100910.59
2018-11-11T19:34:21.925Z,100913.14
2018-11-11T19:36:50.408Z,100914.20
2018-11-11T19:39:19.448Z,100901.08
2018-11-11T19:41:48.833Z,100910.02
2018-11-11T19:44:17.808Z,100918.43
2018-11-11T19:46:46.681Z,100919.61
2018-11-11T19:49:15.391Z,100916.99
2018-11-11T19:51:44.410Z,100919.39
2018-11-11T19:54:13.117Z,100928.02
2018-11-11T19:56:41.822Z,100941.38
2018-11-11T19:59:10.380Z,100938.86
2018-11-11T20:01:39.437Z,100945.19
2018-11-11T20:04:08.288Z,100947.08
2018-11-11T20:06:36.740Z,100959.92
2018-11-11T20:09:09.035Z,100973.81
2018-11-11T20:11:37.774Z,100976.86
2018-11-11T20:14:07.367Z,100976.86
2018-11-11T20:16:36.430Z,100982.33
2018-11-11T20:19:05.272Z,100984.95
2018-11-11T20:21:34.071Z,100987.25
2018-11-11T20:24:03.285Z,100990.91
2018-11-11T20:26:32.322Z,100981.12
2018-11-11T20:29:00.804Z,100979.61
2018-11-11T20:31:29.505Z,100980.98
2018-11-11T20:33:58.306Z,100999.91
2018-11-11T20:36:26.959Z,100998.63
2018-11-11T20:38:55.943Z,101001.98
2018-11-11T20:41:24.615Z,100995.02
2018-11-11T20:43:53.248Z,100990.48
2018-11-11T20:46:21.691Z,100981.45
2018-11-11T20:48:50.695Z,100965.63
2018-11-11T20:51:19.156Z,100967.84
2018-11-11T20:53:47.929Z,100974.75
2018-11-11T20:56:16.962Z,100973.13
2018-11-11T20:58:45.855Z,100973.75
2018-11-11T21:01:14.398Z,100974.55
2018-11-11T21:03:43.219Z,100963.79
2018-11-11T21:06:11.880Z,100954.72
2018-11-11T21:08:40.336Z,100965.45
2018-11-11T21:11:09.436Z,100962.20
2018-11-11T21:13:38.150Z,100963.75
2018-11-11T21:16:07.104Z,100967.75
2018-11-11T21:18:35.834Z,100974.97
2018-11-11T21:21:04.443Z,100963.44
2018-11-11T21:23:33.273Z,100973.20
2018-11-11T21:26:02.056Z,100968.98
2018-11-11T21:28:30.638Z,100971.00
2018-11-11T21:31:00.032Z,100976.73
2018-11-11T21:33:28.516Z,100979.77
2018-11-11T21:35:56.957Z,100984.19
2018-11-11T21:38:25.446Z,100989.69
2018-11-11T21:40:53.899Z,100989.98
2018-11-11T21:43:22.341Z,101002.80
2018-11-11T21:45:50.828Z,101008.05
2018-11-11T21:48:19.233Z,101005.23
2018-11-11T21:50:47.697Z,101011.75
2018-11-11T21:53:27.273Z,101010.52
2018-11-11T21:55:55.806Z,101020.03
2018-11-11T21:58:24.366Z,101030.21
2018-11-11T22:00:52.807Z,101029.38
2018-11-11T22:03:21.277Z,101031.58
2018-11-11T22:05:49.746Z,101019.29
2018-11-11T22:08:18.159Z,101009.63
2018-11-11T22:10:46.650Z,101020.66
2018-11-11T22:13:15.059Z,101015.11
2018-11-11T22:15:43.584Z,101024.94
2018-11-11T22:18:11.981Z,101026.22
2018-11-11T22:20:40.451Z,101030.00
2018-11-11T22:23:08.898Z,101027.84
2018-11-11T22:25:37.355Z,101027.75
2018-11-11T22:28:05.918Z,101027.61
2018-11-11T22:30:34.307Z,101034.13
2018-11-11T22:33:02.746Z,101045.89
2018-11-11T22:35:31.202Z,101037.04
2018-11-11T22:37:59.649Z,101032.11
2018-11-11T22:40:28.108Z,101042.50
2018-11-11T22:42:56.551Z,101050.17
2018-11-11T22:45:25.039Z,101041.58
2018-11-11T22:47:53.457Z,101044.13
2018-11-11T22:50:21.907Z,101049.83
2018-11-11T22:52:50.320Z,101044.29
2018-11-11T22:55:18.789Z,101042.13
2018-11-11T22:57:47.240Z,101050.11
2018-11-11T23:00:21.671Z,101048.44
2018-11-11T23:02:50.696Z,101057.69
2018-11-11T23:05:20.165Z,101056.84
2018-11-11T23:07:48.928Z,101059.76
2018-11-11T23:10:17.440Z,101053.14
2018-11-11T23:12:45.873Z,101058.20
2018-11-11T23:15:15.652Z,101059.58
2018-11-11T23:17:44.072Z,101065.88
2018-11-11T23:20:14.212Z,101071.52
2018-11-11T23:22:42.904Z,101074.60
2018-11-11T23:25:12.941Z,101076.80
2018-11-11T23:27:41.628Z,101071.52
2018-11-11T23:30:14.669Z,101082.97
2018-11-11T23:32:43.118Z,101085.92
2018-11-11T23:35:11.964Z,101080.77
2018-11-11T23:37:40.846Z,101086.97
2018-11-11T23:40:11.225Z,101095.88
2018-11-11T23:42:40.116Z,101091.64
2018-11-11T23:45:08.617Z,101093.35
2018-11-11T23:47:37.090Z,101089.57
2018-11-11T23:50:07.994Z,101102.63
2018-11-11T23:52:36.418Z,101109.14
2018-11-11T23:55:05.210Z,101099.89
2018-11-11T23:57:33.644Z,101109.45
